Airfield :
LOGIN :

Register | Disclaimer

   EN    FR    IT 

 










Legend :    VFR   Marginal VFR   IFR   Intensive IFR   Very Intensive IFR
Visi :
Ceiling :
>= 8 km
>= 3000ft
5 to 8 km
1000 to 3000 ft
1500m to 5 km
500 to 1000 ft
800 to 1500m
200 to 500 ft
< 800m
< 200 ft
Symbols :   Thunderstorms  Fog  Heavy snow  Heavy precipitations  Wind > 20 kt
SIGMETs :     Misc.  Thunderstorms  Icing  Turbulence  Mountain Waves  Volcanic Ashes







- Airport Elevation : 325 ft
- IATA code : BES
- Download approach charts


LFRB - Brest

CURRENT METAR :
  • 261230Z AUTO 21007KT 160V240 CAVOK 29/15 Q1011 NOSIG

EXPIRED METARs :
  • 261200Z AUTO 18005KT 140V220 9999 FEW007 29/15 Q1011 NOSIG
  • 261130Z AUTO 11005KT 030V160 CAVOK 28/15 Q1011 NOSIG
  • 261100Z AUTO 13006KT 050V190 CAVOK 28/16 Q1011 NOSIG
  • 261030Z AUTO 11005KT 010V160 CAVOK 27/15 Q1011 NOSIG
  • 261000Z AUTO 10006KT 060V150 CAVOK 26/15 Q1012 NOSIG

TAF TAF LFRB
Valid from the 26 at 12:00 until the 27 at 18:00 UTC


261100Z 2612/2718 12010KT CAVOK
BECMG 2623/2701 BKN008
BECMG 2701/2703 28006KT OVC003
TEMPO 2622/2701 SHRA BKN090
PROB40
TEMPO 2704/2706 2000 BR OVC001
BECMG 2708/2710 BKN014
BECMG 2710/2712 BKN018
ATIS : +33 2 98 32 02 71
No reported NOTAMs for that airfield.



MET'MAP, your aeronautical weather chart ! - Copyright ORBIFLY December 2007 - Disclaimer

ORBIFLY MET'MAP TEAM :

Programming & Development : Alexandra Zaïnal
Concept & Development : Baudouin d'Aumeries
Co-Development & Prog : Marc-Olivier Méhu
Technical & hardware support : Manuel Goepfert

Contact : metmap@orbifly.com




SOURCES & CREDITS :

   NOAA